createdAt,value
2023-05-24T00:00:13.922Z,98050.50
2023-05-24T00:01:16.752Z,98047.03
2023-05-24T00:02:20.178Z,98053.13
2023-05-24T00:03:22.110Z,98048.88
2023-05-24T00:04:25.825Z,98053.13
2023-05-24T00:05:31.227Z,98052.31
2023-05-24T00:06:37.162Z,98047.03
2023-05-24T00:07:39.276Z,98049.47
2023-05-24T00:08:42.304Z,98052.13
2023-05-24T00:09:44.537Z,98050.28
2023-05-24T00:10:48.403Z,98046.84
2023-05-24T00:11:50.496Z,98050.28
2023-05-24T00:12:53.849Z,98055.78
2023-05-24T00:13:58.944Z,98050.03
2023-05-24T00:15:01.720Z,98055.31
2023-05-24T00:16:03.756Z,98049.22
2023-05-24T00:17:06.846Z,98053.50
2023-05-24T00:18:11.929Z,98049.22
2023-05-24T00:19:18.697Z,98056.31
2023-05-24T00:20:21.275Z,98044.97
2023-05-24T00:21:24.247Z,98047.41
2023-05-24T00:22:26.228Z,98047.41
2023-05-24T00:23:29.168Z,98047.41
2023-05-24T00:24:31.130Z,98048.22
2023-05-24T00:25:33.908Z,98046.59
2023-05-24T00:26:35.746Z,98051.66
2023-05-24T00:27:38.609Z,98046.22
2023-05-24T00:28:41.605Z,98045.38
2023-05-24T00:29:46.290Z,98046.03
2023-05-24T00:30:48.145Z,98054.75
2023-05-24T00:31:51.013Z,98050.50
2023-05-24T00:32:53.018Z,98050.66
2023-05-24T00:33:55.958Z,98050.66
2023-05-24T00:34:57.816Z,98049.84
2023-05-24T00:36:00.628Z,98056.94
2023-05-24T00:37:02.550Z,98050.66
2023-05-24T00:38:08.346Z,98055.94
2023-05-24T00:39:14.000Z,98048.00
2023-05-24T00:40:18.964Z,98046.22
2023-05-24T00:41:21.169Z,98052.31
2023-05-24T00:42:24.400Z,98054.31
2023-05-24T00:43:26.251Z,98046.59
2023-05-24T00:44:29.686Z,98046.78
2023-05-24T00:45:33.856Z,98044.31
2023-05-24T00:46:37.878Z,98051.63
2023-05-24T00:47:42.032Z,98048.34
2023-05-24T00:48:46.956Z,98053.81
2023-05-24T00:49:51.042Z,98057.81
2023-05-24T00:50:53.540Z,98050.91
2023-05-24T00:51:57.576Z,98054.94
2023-05-24T00:53:01.211Z,98048.00
2023-05-24T00:54:04.202Z,98055.31
2023-05-24T00:55:07.827Z,98056.47
2023-05-24T00:56:11.017Z,98048.16
2023-05-24T00:57:14.756Z,98062.72
2023-05-24T00:58:18.621Z,98054.19
2023-05-24T00:59:20.507Z,98058.81
2023-05-24T01:00:23.993Z,98060.81
2023-05-24T01:01:31.163Z,98065.28
2023-05-24T01:02:34.342Z,98062.81
2023-05-24T01:03:36.426Z,98068.09
2023-05-24T01:04:40.426Z,98068.91
2023-05-24T01:05:42.301Z,98065.63
2023-05-24T01:07:02.799Z,98064.00
2023-05-24T01:08:13.192Z,98071.09
2023-05-24T01:09:24.171Z,98071.28
2023-05-24T01:10:33.579Z,98071.91
2023-05-24T01:11:51.342Z,98070.28
2023-05-24T01:13:01.430Z,98072.28
2023-05-24T01:14:14.351Z,98071.66
2023-05-24T01:15:24.918Z,98072.00
2023-05-24T01:16:32.997Z,98068.75
2023-05-24T01:17:42.747Z,98077.47
2023-05-24T01:18:47.763Z,98074.22
2023-05-24T01:19:54.119Z,98071.94
2023-05-24T01:21:04.548Z,98073.13
2023-05-24T01:22:18.020Z,98071.66
2023-05-24T01:23:34.532Z,98077.09
2023-05-24T01:24:48.915Z,98078.66
2023-05-24T01:26:05.050Z,98076.19
2023-05-24T01:27:13.809Z,98080.03
2023-05-24T01:28:35.594Z,98072.66
2023-05-24T01:29:56.889Z,98079.75
2023-05-24T01:31:21.332Z,98077.03
2023-05-24T01:32:43.480Z,98074.75
2023-05-24T01:34:05.463Z,98081.84
2023-05-24T01:35:26.164Z,98075.31
2023-05-24T01:36:48.960Z,98083.59
2023-05-24T01:38:10.935Z,98077.03
2023-05-24T01:39:35.049Z,98075.75
2023-05-24T01:41:00.354Z,98070.84
2023-05-24T01:42:28.773Z,98081.91
2023-05-24T01:43:43.814Z,98079.66
2023-05-24T01:44:52.785Z,98081.81
2023-05-24T01:46:01.037Z,98087.28
2023-05-24T01:47:09.252Z,98084.00
2023-05-24T01:48:19.488Z,98088.44
2023-05-24T01:49:27.382Z,98083.75
2023-05-24T01:50:34.776Z,98088.53
2023-05-24T01:51:41.780Z,98081.00
2023-05-24T01:52:46.815Z,98084.97
2023-05-24T01:53:50.852Z,98091.44
2023-05-24T01:54:53.998Z,98088.78
2023-05-24T01:56:00.527Z,98085.34
2023-05-24T01:57:05.687Z,98086.97
2023-05-24T01:58:11.910Z,98091.44
2023-05-24T01:59:15.170Z,98090.63
2023-05-24T02:00:20.019Z,98088.97
2023-05-24T02:01:22.157Z,98091.97
2023-05-24T02:02:25.724Z,98094.59
2023-05-24T02:03:28.403Z,98093.97
2023-05-24T02:04:34.155Z,98102.84
2023-05-24T02:05:35.961Z,98096.31
2023-05-24T02:06:44.910Z,98099.75
2023-05-24T02:07:49.061Z,98099.09
2023-05-24T02:08:53.523Z,98098.47
2023-05-24T02:09:56.643Z,98094.38
2023-05-24T02:10:59.464Z,98100.63
2023-05-24T02:12:05.667Z,98093.91
2023-05-24T02:13:10.622Z,98100.53
2023-05-24T02:14:13.428Z,98109.56
2023-05-24T02:15:16.477Z,98099.38
2023-05-24T02:16:18.408Z,98112.72
2023-05-24T02:17:22.583Z,98107.00
2023-05-24T02:18:24.597Z,98101.72
2023-05-24T02:19:27.409Z,98115.53
2023-05-24T02:20:31.160Z,98108.63
2023-05-24T02:21:35.841Z,98110.25
2023-05-24T02:22:38.690Z,98108.44
2023-05-24T02:23:41.674Z,98118.16
2023-05-24T02:24:43.530Z,98114.56
2023-05-24T02:25:48.687Z,98114.38
2023-05-24T02:26:50.568Z,98115.19
2023-05-24T02:29:47.655Z,98114.84
2023-05-24T02:30:49.797Z,98114.31
2023-05-24T02:31:56.400Z,98113.16
2023-05-24T02:33:00.734Z,98113.44
2023-05-24T02:34:03.738Z,98115.72
2023-05-24T02:35:06.052Z,98112.72
2023-05-24T02:36:09.008Z,98118.63
2023-05-24T02:37:14.800Z,98114.84
2023-05-24T02:38:17.627Z,98115.66
2023-05-24T02:39:20.948Z,98113.50
2023-05-24T02:40:26.369Z,98115.31
2023-05-24T02:41:28.208Z,98112.50
2023-05-24T02:42:31.370Z,98106.88
2023-05-24T02:43:33.690Z,98108.50
2023-05-24T02:44:36.508Z,98115.22
2023-05-24T02:45:39.692Z,98107.31
2023-05-24T02:46:42.558Z,98117.69
2023-05-24T02:48:03.022Z,98113.25
2023-05-24T02:49:25.852Z,98111.59
2023-05-24T02:50:50.319Z,98108.13
2023-05-24T02:52:10.899Z,98114.06
2023-05-24T02:53:32.547Z,98119.97
2023-05-24T02:54:54.068Z,98121.16
2023-05-24T02:56:17.208Z,98120.34
2023-05-24T02:57:38.965Z,98124.75
2023-05-24T02:58:59.350Z,98128.22
2023-05-24T03:00:21.300Z,98126.41
2023-05-24T03:01:43.316Z,98119.13
2023-05-24T03:03:04.865Z,98128.66
2023-05-24T03:04:27.050Z,98118.78
2023-05-24T03:05:48.937Z,98124.06
2023-05-24T03:07:10.745Z,98122.41
2023-05-24T03:08:31.675Z,98127.66
2023-05-24T03:09:57.474Z,98136.41
2023-05-24T03:11:21.904Z,98131.31
2023-05-24T03:12:43.338Z,98125.22
2023-05-24T03:14:06.333Z,98127.22
2023-05-24T03:15:27.070Z,98132.31
2023-05-24T03:16:50.116Z,98136.94
2023-05-24T03:18:11.874Z,98134.13
2023-05-24T03:19:35.220Z,98131.97
2023-05-24T03:20:56.915Z,98137.84
2023-05-24T03:22:19.425Z,98129.63
2023-05-24T03:23:40.095Z,98130.25
2023-05-24T03:25:01.820Z,98123.97
2023-05-24T03:26:22.168Z,98126.59
2023-05-24T03:27:43.964Z,98131.88
2023-05-24T03:29:04.593Z,98130.25
2023-05-24T03:30:31.128Z,98128.59
2023-05-24T03:31:55.556Z,98133.88
2023-05-24T03:33:16.621Z,98140.31
2023-05-24T03:34:38.271Z,98139.50
2023-05-24T03:35:55.287Z,98132.41
2023-05-24T03:36:59.810Z,98129.78
2023-05-24T03:38:03.204Z,98127.94
2023-05-24T03:39:07.760Z,98132.25
2023-05-24T03:40:23.437Z,98132.25
2023-05-24T03:41:32.410Z,98137.31
2023-05-24T03:42:35.262Z,98129.91
2023-05-24T03:43:38.094Z,98133.16
2023-05-24T03:44:43.877Z,98134.44
2023-05-24T03:45:46.735Z,98121.91
2023-05-24T03:46:48.607Z,98128.78
2023-05-24T03:47:52.860Z,98132.25
2023-05-24T03:48:54.663Z,98130.47
2023-05-24T03:49:58.117Z,98137.34
2023-05-24T03:50:59.979Z,98135.72
2023-05-24T03:52:03.218Z,98130.25
2023-05-24T03:53:05.497Z,98133.72
2023-05-24T03:54:08.314Z,98138.44
2023-05-24T03:55:12.166Z,98125.75
2023-05-24T03:56:15.061Z,98132.66
2023-05-24T03:57:17.462Z,98135.91
2023-05-24T03:58:20.252Z,98136.56
2023-05-24T03:59:24.295Z,98140.81
2023-05-24T04:00:45.808Z,98143.47
2023-05-24T04:02:08.859Z,98146.09
2023-05-24T04:03:34.184Z,98145.28
2023-05-24T04:04:55.842Z,98139.19
2023-05-24T04:06:17.668Z,98153.34
2023-05-24T04:07:20.590Z,98151.53
2023-05-24T04:08:22.453Z,98149.75
2023-05-24T04:09:25.522Z,98149.53
2023-05-24T04:10:27.675Z,98155.44
2023-05-24T04:11:30.469Z,98155.25
2023-05-24T04:12:32.488Z,98161.19
2023-05-24T04:13:35.299Z,98149.81
2023-05-24T04:14:37.178Z,98155.91
2023-05-24T04:15:40.035Z,98157.53
2023-05-24T04:16:42.092Z,98165.25
2023-05-24T04:17:45.759Z,98165.91
2023-05-24T04:18:49.204Z,98164.56
2023-05-24T04:19:53.260Z,98172.28
2023-05-24T04:20:56.063Z,98167.81
2023-05-24T04:21:57.949Z,98172.75
2023-05-24T04:23:00.868Z,98173.56
2023-05-24T04:24:03.424Z,98181.28
2023-05-24T04:25:07.620Z,98172.38
2023-05-24T04:26:12.356Z,98181.91
2023-05-24T04:27:15.227Z,98178.28
2023-05-24T04:28:18.052Z,98182.38
2023-05-24T04:29:20.435Z,98182.19
2023-05-24T04:30:23.437Z,98180.34
2023-05-24T04:31:26.301Z,98184.81
2023-05-24T04:32:30.371Z,98184.00
2023-05-24T04:33:32.589Z,98193.53
2023-05-24T04:34:37.569Z,98179.38
2023-05-24T04:35:40.734Z,98191.41
2023-05-24T04:36:43.494Z,98188.56
2023-05-24T04:37:48.325Z,98190.22
2023-05-24T04:38:53.680Z,98198.75
2023-05-24T04:39:55.865Z,98189.84
2023-05-24T04:40:58.847Z,98192.50
2023-05-24T04:42:00.708Z,98203.03
2023-05-24T04:43:03.533Z,98197.75
2023-05-24T04:44:05.589Z,98195.78
2023-05-24T04:45:09.488Z,98201.50
2023-05-24T04:46:11.319Z,98194.38
2023-05-24T04:47:15.133Z,98200.31
2023-05-24T04:48:17.606Z,98200.94
2023-05-24T04:49:20.544Z,98199.13
2023-05-24T04:50:24.131Z,98206.22
2023-05-24T04:51:26.922Z,98208.03
2023-05-24T04:52:28.756Z,98210.69
2023-05-24T04:53:32.844Z,98201.75
2023-05-24T04:54:34.736Z,98197.69
2023-05-24T04:55:37.523Z,98206.41
2023-05-24T04:56:39.349Z,98204.41
2023-05-24T04:57:42.108Z,98210.94
2023-05-24T04:58:43.917Z,98205.47
2023-05-24T04:59:46.790Z,98213.41
2023-05-24T05:01:07.415Z,98211.56
2023-05-24T05:02:10.314Z,98209.78
2023-05-24T05:03:13.760Z,98209.94
2023-05-24T05:04:16.666Z,98214.59
2023-05-24T05:05:18.632Z,98216.41
2023-05-24T05:06:23.190Z,98210.31
2023-05-24T05:07:24.991Z,98219.06
2023-05-24T05:08:27.862Z,98220.69
2023-05-24T05:09:29.700Z,98223.13
2023-05-24T05:10:32.504Z,98231.84
2023-05-24T05:11:34.321Z,98226.78
2023-05-24T05:12:39.730Z,98228.41
2023-05-24T05:13:41.538Z,98227.59
2023-05-24T05:14:44.311Z,98232.69
2023-05-24T05:15:46.291Z,98232.50
2023-05-24T05:16:49.187Z,98233.53
2023-05-24T05:17:51.299Z,98230.03
2023-05-24T05:19:13.075Z,98233.53
2023-05-24T05:20:15.911Z,98234.34
2023-05-24T05:21:18.488Z,98240.22
2023-05-24T05:22:22.706Z,98240.22
2023-05-24T05:23:24.555Z,98236.97
2023-05-24T05:24:28.775Z,98237.31
2023-05-24T05:25:31.050Z,98245.44
2023-05-24T05:26:34.518Z,98250.03
2023-05-24T05:27:36.321Z,98245.78
2023-05-24T05:28:39.215Z,98252.69
2023-05-24T05:29:42.549Z,98253.88
2023-05-24T05:30:44.491Z,98256.03
2023-05-24T05:31:48.077Z,98258.41
2023-05-24T05:32:50.020Z,98254.19
2023-05-24T05:33:52.940Z,98262.19
2023-05-24T05:34:55.736Z,98265.06
2023-05-24T05:36:16.473Z,98260.41
2023-05-24T05:37:39.198Z,98267.75
2023-05-24T05:39:00.920Z,98271.75
2023-05-24T05:40:22.822Z,98272.19
2023-05-24T05:41:46.524Z,98274.22
2023-05-24T05:42:52.374Z,98271.28
2023-05-24T05:43:55.163Z,98280.53
2023-05-24T05:44:57.383Z,98275.63
2023-05-24T05:46:00.855Z,98281.69
2023-05-24T05:47:04.009Z,98279.06
2023-05-24T05:48:07.214Z,98288.78
2023-05-24T05:49:09.584Z,98287.97
2023-05-24T05:50:12.669Z,98287.31
2023-05-24T05:51:14.519Z,98282.56
2023-05-24T05:52:17.335Z,98288.34
2023-05-24T05:53:21.107Z,98289.69
2023-05-24T05:54:23.902Z,98295.44
2023-05-24T05:55:25.688Z,98297.41
2023-05-24T05:56:28.675Z,98296.94
2023-05-24T05:57:31.515Z,98293.50
2023-05-24T05:58:33.508Z,98293.66
2023-05-24T05:59:36.504Z,98289.56
2023-05-24T06:00:38.330Z,98302.88
2023-05-24T06:01:41.419Z,98298.78
2023-05-24T06:03:03.012Z,98299.13
2023-05-24T06:04:05.053Z,98303.75
2023-05-24T06:05:08.452Z,98316.25
2023-05-24T06:06:10.330Z,98303.25
2023-05-24T06:07:13.098Z,98294.91
2023-05-24T06:08:14.882Z,98308.38
2023-05-24T06:09:19.079Z,98305.25
2023-05-24T06:10:21.269Z,98316.94
2023-05-24T06:11:24.128Z,98312.69
2023-05-24T06:12:27.226Z,98315.31
2023-05-24T06:13:31.176Z,98320.56
2023-05-24T06:14:34.481Z,98316.28
2023-05-24T06:15:36.279Z,98320.09
2023-05-24T06:16:41.984Z,98314.00
2023-05-24T06:17:47.846Z,98320.25
2023-05-24T06:19:04.619Z,98316.97
2023-05-24T06:20:12.039Z,98333.09
2023-05-24T06:21:14.307Z,98323.53
2023-05-24T06:22:18.786Z,98333.25
2023-05-24T06:23:20.792Z,98341.94
2023-05-24T06:24:24.934Z,98335.72
2023-05-24T06:25:30.860Z,98333.75
2023-05-24T06:26:33.009Z,98341.31
2023-05-24T06:27:35.834Z,98343.25
2023-05-24T06:28:38.865Z,98347.22
2023-05-24T06:29:40.850Z,98345.75
2023-05-24T06:30:44.352Z,98346.06
2023-05-24T06:31:47.380Z,98351.84
2023-05-24T06:32:50.272Z,98352.34
2023-05-24T06:34:03.889Z,98355.94
2023-05-24T06:35:08.888Z,98355.13
2023-05-24T06:36:11.893Z,98362.19
2023-05-24T06:37:15.646Z,98356.94
2023-05-24T06:38:17.825Z,98360.75
2023-05-24T06:39:20.918Z,98354.81
2023-05-24T06:40:24.100Z,98371.41
2023-05-24T06:41:28.029Z,98365.50
2023-05-24T06:42:30.027Z,98359.75
2023-05-24T06:43:52.731Z,98363.72
2023-05-24T06:45:14.950Z,98362.88
2023-05-24T06:46:36.643Z,98366.34
2023-05-24T06:47:58.306Z,98368.97
2023-05-24T06:49:19.947Z,98365.69
2023-05-24T06:50:42.820Z,98365.50
2023-05-24T06:51:46.858Z,98369.63
2023-05-24T06:52:49.704Z,98369.94
2023-05-24T06:53:52.020Z,98372.91
2023-05-24T06:54:54.781Z,98373.91
2023-05-24T06:55:57.958Z,98374.84
2023-05-24T06:57:00.872Z,98367.16
2023-05-24T06:58:02.678Z,98374.84
2023-05-24T06:59:05.936Z,98374.84
2023-05-24T07:00:12.051Z,98371.59
2023-05-24T07:01:17.027Z,98372.59
2023-05-24T07:02:18.886Z,98377.16
2023-05-24T07:03:22.015Z,98383.09
2023-05-24T07:04:24.395Z,98378.66
2023-05-24T07:05:27.214Z,98382.28
2023-05-24T07:06:29.308Z,98374.38
2023-05-24T07:07:32.580Z,98379.97
2023-05-24T07:08:34.395Z,98384.41
2023-05-24T07:09:42.403Z,98388.16
2023-05-24T07:10:45.443Z,98391.13
2023-05-24T07:11:50.127Z,98389.63
2023-05-24T07:12:53.200Z,98393.25
2023-05-24T07:13:55.277Z,98391.63
2023-05-24T07:14:58.045Z,98395.25
2023-05-24T07:16:02.157Z,98403.13
2023-05-24T07:17:06.167Z,98402.94
2023-05-24T07:18:08.298Z,98403.78
2023-05-24T07:19:13.509Z,98398.50
2023-05-24T07:20:15.933Z,98408.19
2023-05-24T07:21:18.837Z,98407.69
2023-05-24T07:22:20.698Z,98415.91
2023-05-24T07:23:23.599Z,98409.34
2023-05-24T07:24:25.504Z,98413.78
2023-05-24T07:25:28.861Z,98413.47
2023-05-24T07:26:30.681Z,98409.03
2023-05-24T07:27:34.862Z,98404.09
2023-05-24T07:28:38.812Z,98414.88
2023-05-24T07:29:41.658Z,98409.97
2023-05-24T07:30:43.631Z,98411.91
2023-05-24T07:31:46.541Z,98418.97
2023-05-24T07:32:49.874Z,98423.28
2023-05-24T07:33:52.057Z,98417.66
2023-05-24T07:34:55.899Z,98416.56
2023-05-24T07:35:59.262Z,98422.66
2023-05-24T07:37:02.234Z,98411.31
2023-05-24T07:38:05.777Z,98421.81
2023-05-24T07:39:09.986Z,98419.84
2023-05-24T07:40:13.166Z,98422.16
2023-05-24T07:41:15.077Z,98420.84
2023-05-24T07:42:17.985Z,98425.59
2023-05-24T07:43:21.127Z,98425.94
2023-05-24T07:44:26.263Z,98427.78
2023-05-24T07:45:28.104Z,98423.50
2023-05-24T07:46:30.927Z,98439.44
2023-05-24T07:47:33.925Z,98435.00
2023-05-24T07:48:36.781Z,98433.34
2023-05-24T07:49:38.943Z,98426.63
2023-05-24T07:50:48.385Z,98425.16
2023-05-24T07:51:51.129Z,98439.75
2023-05-24T07:52:52.914Z,98445.53
2023-05-24T07:53:55.919Z,98436.63
2023-05-24T07:54:57.765Z,98438.28
2023-05-24T07:56:00.538Z,98444.34
2023-05-24T07:57:02.981Z,98444.34
2023-05-24T07:58:06.416Z,98438.94
2023-05-24T07:59:09.600Z,98443.22
2023-05-24T08:00:15.066Z,98440.59
2023-05-24T08:01:18.717Z,98446.50
2023-05-24T08:02:21.608Z,98444.53
2023-05-24T08:03:26.549Z,98454.22
2023-05-24T08:04:29.411Z,98447.31
2023-05-24T08:05:31.418Z,98449.63
2023-05-24T08:06:35.059Z,98462.78
2023-05-24T08:07:36.923Z,98460.13
2023-05-24T08:08:40.275Z,98460.81
2023-05-24T08:09:43.635Z,98466.72
2023-05-24T08:10:45.583Z,98462.44
2023-05-24T08:11:48.491Z,98462.94
2023-05-24T08:12:51.484Z,98465.25
2023-05-24T08:13:54.317Z,98465.41
2023-05-24T08:14:58.084Z,98464.44
2023-05-24T08:16:01.092Z,98467.69
2023-05-24T08:17:22.547Z,98474.63
2023-05-24T08:18:25.359Z,98471.81
2023-05-24T08:19:27.340Z,98474.28
2023-05-24T08:20:30.244Z,98472.16
2023-05-24T08:21:33.801Z,98470.34
2023-05-24T08:22:37.182Z,98474.09
2023-05-24T08:23:38.982Z,98472.66
2023-05-24T08:24:41.765Z,98478.09
2023-05-24T08:25:44.247Z,98472.00
2023-05-24T08:26:47.495Z,98479.22
2023-05-24T08:27:49.328Z,98473.78
2023-05-24T08:28:52.561Z,98476.25
2023-05-24T08:29:56.889Z,98482.00
2023-05-24T08:31:01.679Z,98472.31
2023-05-24T08:32:04.220Z,98484.63
2023-05-24T08:33:07.322Z,98483.66
2023-05-24T08:34:09.148Z,98472.94
2023-05-24T08:35:21.088Z,98484.78
2023-05-24T08:36:24.863Z,98480.03
2023-05-24T08:37:27.096Z,98489.56
2023-05-24T08:38:29.957Z,98488.59
2023-05-24T08:39:31.844Z,98486.59
2023-05-24T08:40:34.794Z,98495.97
2023-05-24T08:41:37.703Z,98497.13
2023-05-24T08:42:41.156Z,98498.13
2023-05-24T08:43:44.292Z,98492.53
2023-05-24T08:44:49.361Z,98494.50
2023-05-24T08:45:53.273Z,98497.97
2023-05-24T08:46:57.864Z,98500.09
2023-05-24T08:48:01.367Z,98499.41
2023-05-24T08:49:05.321Z,98497.78
2023-05-24T08:50:08.396Z,98506.66
2023-05-24T08:51:11.517Z,98513.56
2023-05-24T08:52:13.684Z,98506.19
2023-05-24T08:53:17.345Z,98510.94
2023-05-24T08:54:20.182Z,98514.09
2023-05-24T08:55:23.088Z,98516.53
2023-05-24T08:56:32.162Z,98513.91
2023-05-24T08:57:35.824Z,98510.78
2023-05-24T08:58:40.570Z,98515.88
2023-05-24T08:59:44.036Z,98509.63
2023-05-24T09:00:48.072Z,98518.19
2023-05-24T09:01:53.653Z,98522.78
2023-05-24T09:02:58.651Z,98524.94
2023-05-24T09:04:01.884Z,98530.19
2023-05-24T09:05:05.216Z,98533.31
2023-05-24T09:06:08.880Z,98532.81
2023-05-24T09:07:13.002Z,98526.56
2023-05-24T09:08:18.370Z,98537.59
2023-05-24T09:09:22.359Z,98532.00
2023-05-24T09:10:25.456Z,98529.06
2023-05-24T09:11:28.663Z,98536.28
2023-05-24T09:12:38.092Z,98531.66
2023-05-24T09:13:41.750Z,98542.03
2023-05-24T09:14:46.078Z,98534.97
2023-05-24T09:15:48.921Z,98546.13
2023-05-24T09:16:51.499Z,98544.19
2023-05-24T09:17:54.543Z,98547.44
2023-05-24T09:18:58.671Z,98536.91
2023-05-24T09:20:00.776Z,98544.69
2023-05-24T09:21:03.814Z,98550.59
2023-05-24T09:22:05.894Z,98548.13
2023-05-24T09:23:08.906Z,98555.38
2023-05-24T09:24:11.418Z,98555.19
2023-05-24T09:25:15.410Z,98558.81
2023-05-24T09:26:18.640Z,98555.38
2023-05-24T09:27:21.650Z,98558.19
2023-05-24T09:28:24.949Z,98553.75
2023-05-24T09:29:27.054Z,98559.66
2023-05-24T09:30:29.913Z,98559.66
2023-05-24T09:31:35.687Z,98560.63
2023-05-24T09:32:58.869Z,98563.59
2023-05-24T09:34:03.331Z,98563.22
2023-05-24T09:35:09.626Z,98569.66
2023-05-24T09:36:12.637Z,98570.81
2023-05-24T09:37:16.853Z,98571.78
2023-05-24T09:38:20.102Z,98567.69
2023-05-24T09:39:22.995Z,98570.31
2023-05-24T09:40:25.812Z,98570.81
2023-05-24T09:41:27.930Z,98576.25
2023-05-24T09:42:32.462Z,98572.28
2023-05-24T09:43:36.176Z,98584.09
2023-05-24T09:44:39.098Z,98573.94
2023-05-24T09:45:46.667Z,98577.69
2023-05-24T09:46:48.951Z,98573.72
2023-05-24T09:47:53.879Z,98572.09
2023-05-24T09:48:57.149Z,98575.41
2023-05-24T09:50:02.177Z,98578.69
2023-05-24T09:51:05.653Z,98578.38
2023-05-24T09:52:08.808Z,98569.31
2023-05-24T09:53:10.731Z,98583.28
2023-05-24T09:54:13.701Z,98571.94
2023-05-24T09:55:17.650Z,98584.59
2023-05-24T09:56:20.672Z,98580.66
2023-05-24T09:57:23.770Z,98580.81
2023-05-24T09:58:29.951Z,98582.97
2023-05-24T09:59:34.593Z,98582.13
2023-05-24T10:00:40.028Z,98578.81
2023-05-24T10:01:43.724Z,98585.91
2023-05-24T10:02:53.313Z,98586.88
2023-05-24T10:03:57.542Z,98581.97
2023-05-24T10:05:00.971Z,98579.84
2023-05-24T10:06:07.766Z,98591.84
2023-05-24T10:07:12.176Z,98584.44
2023-05-24T10:08:15.453Z,98584.78
2023-05-24T10:09:18.318Z,98588.25
2023-05-24T10:10:20.649Z,98583.63
2023-05-24T10:11:24.148Z,98587.59
2023-05-24T10:12:27.078Z,98590.03
2023-05-24T10:13:30.325Z,98585.94
2023-05-24T10:14:33.895Z,98585.25
2023-05-24T10:15:36.877Z,98591.69
2023-05-24T10:16:39.124Z,98591.84
2023-05-24T10:17:42.558Z,98598.41
2023-05-24T10:18:44.644Z,98590.03
2023-05-24T10:19:47.573Z,98596.13
2023-05-24T10:20:52.494Z,98592.34
2023-05-24T10:21:58.702Z,98597.28
2023-05-24T10:23:02.194Z,98600.09
2023-05-24T10:24:09.059Z,98596.16
2023-05-24T10:25:16.520Z,98597.16
2023-05-24T10:26:21.736Z,98594.22
2023-05-24T10:27:26.888Z,98599.31
2023-05-24T10:28:28.712Z,98598.97
2023-05-24T10:29:53.135Z,98593.88
2023-05-24T10:31:02.656Z,98596.00
2023-05-24T10:32:06.749Z,98597.94
2023-05-24T10:33:09.522Z,98602.19
2023-05-24T10:34:14.564Z,98602.00
2023-05-24T10:35:18.196Z,98595.41
2023-05-24T10:36:22.728Z,98600.69
2023-05-24T10:37:25.083Z,98599.88
2023-05-24T10:38:27.886Z,98603.31
2023-05-24T10:39:29.788Z,98600.69
2023-05-24T10:40:33.067Z,98604.13
2023-05-24T10:41:47.357Z,98606.47
2023-05-24T10:42:54.228Z,98611.91
2023-05-24T10:44:19.853Z,98607.94
2023-05-24T10:45:44.883Z,98611.59
2023-05-24T10:47:12.045Z,98611.13
2023-05-24T10:48:40.402Z,98613.75
2023-05-24T10:49:48.702Z,98612.59
2023-05-24T10:50:52.061Z,98610.31
2023-05-24T10:52:02.201Z,98615.41
2023-05-24T10:53:13.690Z,98606.22
2023-05-24T10:54:18.587Z,98605.03
2023-05-24T10:55:21.442Z,98614.06
2023-05-24T10:56:23.753Z,98611.75
2023-05-24T10:57:28.721Z,98612.25
2023-05-24T10:58:46.222Z,98604.34
2023-05-24T10:59:49.215Z,98604.84
2023-05-24T11:00:52.187Z,98611.44
2023-05-24T11:01:59.204Z,98616.06
2023-05-24T11:03:03.988Z,98610.97
2023-05-24T11:04:10.042Z,98613.25
2023-05-24T11:05:12.899Z,98607.00
2023-05-24T11:06:20.322Z,98620.84
2023-05-24T11:07:24.825Z,98610.31
2023-05-24T11:08:31.736Z,98617.53
2023-05-24T11:09:34.977Z,98625.75
2023-05-24T11:10:38.454Z,98616.22
2023-05-24T11:11:40.288Z,98626.25
2023-05-24T11:12:44.888Z,98619.31
2023-05-24T11:13:47.725Z,98616.00
2023-05-24T11:14:52.785Z,98621.59
2023-05-24T11:15:54.880Z,98621.09
2023-05-24T11:16:58.474Z,98619.75
2023-05-24T11:18:17.339Z,98620.56
2023-05-24T11:19:21.324Z,98628.47
2023-05-24T11:20:23.313Z,98626.84
2023-05-24T11:21:27.634Z,98622.91
2023-05-24T11:22:42.827Z,98631.47
2023-05-24T11:23:44.883Z,98629.34
2023-05-24T11:24:48.023Z,98625.41
2023-05-24T11:25:52.203Z,98634.97
2023-05-24T11:26:56.973Z,98626.56
2023-05-24T11:27:59.420Z,98633.16
2023-05-24T11:29:05.027Z,98621.47
2023-05-24T11:30:10.666Z,98624.75
2023-05-24T11:31:12.511Z,98625.41
2023-05-24T11:32:19.312Z,98618.13
2023-05-24T11:33:22.622Z,98619.06
2023-05-24T11:34:27.304Z,98617.56
2023-05-24T11:35:29.859Z,98629.25
2023-05-24T11:36:33.513Z,98619.00
2023-05-24T11:37:45.887Z,98621.66
2023-05-24T11:38:51.154Z,98620.75
2023-05-24T11:39:54.236Z,98622.31
2023-05-24T11:40:58.420Z,98611.50
2023-05-24T11:42:01.450Z,98614.13
2023-05-24T11:43:07.480Z,98612.78
2023-05-24T11:44:11.633Z,98614.06
2023-05-24T11:45:15.739Z,98612.16
2023-05-24T11:46:19.351Z,98614.81
2023-05-24T11:47:22.983Z,98616.00
2023-05-24T11:48:24.957Z,98618.00
2023-05-24T11:49:28.353Z,98620.41
2023-05-24T11:50:45.829Z,98620.94
2023-05-24T11:52:09.680Z,98619.94
2023-05-24T11:53:12.110Z,98620.56
2023-05-24T11:54:16.253Z,98622.19
2023-05-24T11:55:24.150Z,98620.19
2023-05-24T11:56:28.889Z,98621.19
2023-05-24T11:57:40.017Z,98626.22
2023-05-24T11:58:45.643Z,98631.97
2023-05-24T11:59:49.326Z,98622.94
2023-05-24T12:00:51.600Z,98617.66
2023-05-24T12:02:01.462Z,98620.75
2023-05-24T12:03:07.547Z,98615.53
2023-05-24T12:04:11.947Z,98617.75
2023-05-24T12:05:14.417Z,98622.09
2023-05-24T12:06:17.233Z,98626.81
2023-05-24T12:07:20.567Z,98618.25
2023-05-24T12:08:23.346Z,98618.25
2023-05-24T12:09:27.740Z,98623.38
2023-05-24T12:10:29.597Z,98616.31
2023-05-24T12:11:32.763Z,98612.75
2023-05-24T12:12:45.576Z,98620.75
2023-05-24T12:13:49.343Z,98621.19
2023-05-24T12:14:58.551Z,98618.63
2023-05-24T12:16:02.790Z,98620.50
2023-05-24T12:17:06.363Z,98618.88
2023-05-24T12:18:18.660Z,98617.66
2023-05-24T12:19:32.920Z,98619.84
2023-05-24T12:20:36.776Z,98619.97
2023-05-24T12:21:41.384Z,98619.03
2023-05-24T12:22:52.335Z,98614.78
2023-05-24T12:23:54.162Z,98618.06
2023-05-24T12:24:58.674Z,98616.22
2023-05-24T12:26:01.017Z,98619.66
2023-05-24T12:27:06.821Z,98615.75
2023-05-24T12:28:09.811Z,98618.69
2023-05-24T12:29:12.222Z,98615.97
2023-05-24T12:30:20.191Z,98623.03
2023-05-24T12:31:24.565Z,98625.94
2023-05-24T12:32:27.398Z,98626.84
2023-05-24T12:33:31.512Z,98621.50
2023-05-24T12:34:34.352Z,98629.00
2023-05-24T12:35:38.990Z,98634.47
2023-05-24T12:36:43.082Z,98634.03
2023-05-24T12:37:45.238Z,98625.56
2023-05-24T12:38:48.253Z,98623.19
2023-05-24T12:39:54.783Z,98630.25
2023-05-24T12:42:06.157Z,98631.88
2023-05-24T12:43:08.813Z,98618.56
2023-05-24T12:44:12.399Z,98618.00
2023-05-24T12:45:16.017Z,98616.44
2023-05-24T12:46:18.863Z,98623.00
2023-05-24T12:47:21.007Z,98625.19
2023-05-24T12:48:24.249Z,98621.72
2023-05-24T12:49:27.874Z,98617.91
2023-05-24T12:50:33.465Z,98622.13
2023-05-24T12:51:36.576Z,98623.03
2023-05-24T12:52:39.373Z,98614.53
2023-05-24T12:53:41.500Z,98622.56
2023-05-24T12:54:44.327Z,98619.19
2023-05-24T12:55:46.188Z,98617.34
2023-05-24T12:56:51.343Z,98612.25
2023-05-24T12:57:56.734Z,98623.22